Artesian, Iowa
Current Conditions -  °F | °C
As of 11:54 PM on Friday 19 Dec 2014 (Local Time) from KALO Reporting Station
Overcast Overcast  
Wind Chill: -6°   Ceiling: 1500
Heat Index: -2°   Visibility: 10mi
Dew Point: -5°   Wind: 9mph
Humidity: 78%   Direction: 180°S
Pressure: 30.22"   Gusts: NA
Location:  42.787°N, 92.4284°W
Report Text: KALO 200554Z 18008KT 10SM OVC015 M02/M05 A3022 RMK AO2 UPE0456 SLP243 P0000 60000 T10171050 11011 21017 410111044 51001
Loading
Personal Weather Stations






























Interactive Weather Map New forecast layout! Learn more

10-Day Weather Forecast

Advertisements
Track Severe Weather on mobile